Terminal Aerodrome Forecast
Issued by NWS

Home | Current Version | Previous Version | Text Only | Print | Product List | Glossary On
Versions: 1 2 3 4 5 6 7 8 9 10 11 12
620
FTUS46 KPDT 271120
TAFYKM
TAF
KYKM 271120Z 2712/2812 27005KT P6SM SKC
     FM271600 VRB05KT P6SM FEW200
     FM272100 VRB05KT P6SM SKC
     FM280200 31006KT P6SM SKC=

USA.gov is the U.S. government's official web portal to all federal, state and local government web resources and services.